Terminal Aerodrome Forecast
Issued by NWS

Home | Current Version | Previous Version | Text Only | Print | Product List | Glossary On
Versions: 1 2 3 4 5 6 7 8 9 10 11 12 13 14 15 16 17 18 19 20 21 22 23 24 25 26 27 28
000
FTAK31 PAFA 301134
TAFAOT
TAF
PAOT 301134Z 3012/3112 12024KT 1 1/2SM BLSN SKC
     FM301400 12020KT 1 1/2SM -SHSN BLSN SCT025 OVC090
     FM301800 12025G35KT 1SM -SHSN BLSN SCT025 OVC050
     FM310400 14018KT 3SM -SHSN BLSN SCT025 OVC050=

USA.gov is the U.S. government's official web portal to all federal, state and local government web resources and services.